Time;durP1;ratioP1;P1;durP2;ratioP2;P2;SDS_P1;SDS_P2;PMS_P1;PMS_P2;Temp;Humidity;BMP_temperature;BMP_pressure;BME280_temperature;BME280_humidity;BME280_pressure;Samples;Min_cycle;Max_cycle;Signal;HPM_P1;HPM_P2
2021/01/22 00:02:26;;;;;;;0.80;0.73;;;8.80;1.00;;;;;;5025269;28;20472;-78
2021/01/22 00:04:53;;;;;;;0.80;0.80;;;8.80;99.90;;;;;;5013315;28;20495;-79
2021/01/22 00:07:20;;;;;;;0.90;0.90;;;8.70;1.00;;;;;;5025541;28;20513;-79
2021/01/22 00:09:47;;;;;;;0.70;0.70;;;8.60;99.90;;;;;;5025119;28;20493;-79
2021/01/22 00:12:15;;;;;;;0.80;0.80;;;8.60;99.90;;;;;;5022334;28;20473;-78
2021/01/22 00:14:43;;;;;;;0.80;0.80;;;8.60;99.90;;;;;;5027491;28;20492;-78
2021/01/22 00:17:11;;;;;;;0.87;0.70;;;8.50;1.00;;;;;;5023274;28;20496;-78
2021/01/22 00:19:38;;;;;;;0.70;0.70;;;8.50;1.00;;;;;;5026590;28;20846;-79
2021/01/22 00:22:05;;;;;;;0.60;0.60;;;8.40;99.90;;;;;;5022363;28;20487;-78
2021/01/22 00:24:32;;;;;;;0.70;0.70;;;8.50;99.90;;;;;;5026323;28;20485;-79
2021/01/22 00:26:59;;;;;;;0.70;0.70;;;8.30;99.90;;;;;;5027359;28;20567;-78
2021/01/22 00:29:27;;;;;;;0.70;0.70;;;8.30;99.90;;;;;;5020062;28;20478;-81
2021/01/22 00:31:54;;;;;;;0.97;0.70;;;8.30;99.90;;;;;;5013965;28;20498;-78
2021/01/22 00:34:22;;;;;;;0.70;0.70;;;8.30;99.90;;;;;;5011697;28;20497;-78
2021/01/22 00:36:49;;;;;;;0.80;0.70;;;8.30;99.90;;;;;;5016824;28;20498;-79
2021/01/22 00:39:16;;;;;;;0.67;0.67;;;8.20;99.90;;;;;;5026917;28;20214;-79
2021/01/22 00:41:45;;;;;;;0.63;0.63;;;8.20;99.90;;;;;;5022029;28;20479;-78
2021/01/22 00:44:12;;;;;;;1.00;0.60;;;8.20;99.90;;;;;;5017195;28;20481;-77
2021/01/22 00:46:40;;;;;;;0.87;0.60;;;8.30;99.90;;;;;;5030808;28;20491;-77
2021/01/22 00:49:07;;;;;;;0.67;0.60;;;8.20;99.90;;;;;;5026540;28;20464;-78
2021/01/22 00:51:34;;;;;;;2.23;0.70;;;8.20;99.90;;;;;;5029501;28;20466;-81
2021/01/22 00:54:01;;;;;;;2.07;0.80;;;8.10;99.90;;;;;;5028347;28;20484;-79
2021/01/22 00:56:29;;;;;;;0.90;0.70;;;8.10;99.90;;;;;;5022188;28;21072;-78
2021/01/22 00:58:56;;;;;;;0.60;0.60;;;8.10;99.90;;;;;;5030571;28;20479;-78
2021/01/22 01:01:23;;;;;;;0.70;0.60;;;8.10;99.90;;;;;;5022439;28;20826;-79
2021/01/22 01:03:51;;;;;;;0.67;0.67;;;8.10;99.90;;;;;;5028677;28;20495;-82
2021/01/22 01:06:18;;;;;;;0.67;0.67;;;8.10;99.90;;;;;;5031511;28;20523;-79
2021/01/22 01:08:45;;;;;;;0.80;0.63;;;8.10;99.90;;;;;;5022919;28;20468;-78
2021/01/22 01:11:12;;;;;;;0.60;0.60;;;8.00;99.90;;;;;;5028763;28;20475;-81
2021/01/22 01:13:39;;;;;;;0.80;0.67;;;8.00;99.90;;;;;;5026116;28;20532;-81
2021/01/22 01:16:06;;;;;;;0.60;0.60;;;8.00;99.90;;;;;;5024994;28;20541;-79
2021/01/22 01:18:33;;;;;;;0.57;0.57;;;8.00;99.90;;;;;;5026807;28;20478;-78
2021/01/22 01:21:03;;;;;;;0.70;0.70;;;8.10;1.00;;;;;;5018433;28;20458;-79
2021/01/22 01:23:30;;;;;;;0.60;0.60;;;7.90;74.40;;;;;;5031077;28;21124;-79
2021/01/22 01:25:57;;;;;;;3.80;0.70;;;8.00;99.90;;;;;;5022145;28;20485;-79
2021/01/22 01:28:24;;;;;;;0.63;0.63;;;8.00;68.20;;;;;;5030036;28;20475;-81
2021/01/22 01:30:52;;;;;;;0.70;0.67;;;8.00;23.40;;;;;;5029566;28;20463;-80
2021/01/22 01:33:19;;;;;;;1.00;0.53;;;8.00;24.70;;;;;;5027565;28;20550;-78
2021/01/22 01:35:51;;;;;;;0.60;0.60;;;8.00;67.90;;;;;;5019762;28;20871;-77
2021/01/22 01:38:19;;;;;;;0.50;0.50;;;8.00;99.90;;;;;;5013467;28;20475;-78
2021/01/22 01:40:46;;;;;;;1.87;0.63;;;8.00;27.70;;;;;;5023594;28;20471;-80
2021/01/22 01:43:13;;;;;;;0.53;0.53;;;8.00;1.00;;;;;;5014892;28;20523;-80
2021/01/22 01:45:41;;;;;;;0.60;0.60;;;8.10;1.00;;;;;;5022555;28;20499;-77
2021/01/22 01:48:09;;;;;;;0.50;0.50;;;8.10;1.00;;;;;;5016295;28;20956;-76
2021/01/22 01:50:40;;;;;;;0.63;0.63;;;8.10;1.00;;;;;;5016891;28;20480;-78
2021/01/22 01:53:08;;;;;;;0.60;0.60;;;8.10;1.00;;;;;;5021122;28;20617;-78
2021/01/22 01:55:37;;;;;;;0.60;0.60;;;8.10;1.00;;;;;;5022669;28;21019;-82
2021/01/22 01:58:05;;;;;;;1.37;0.70;;;8.10;99.90;;;;;;5027426;28;20994;-79
2021/01/22 02:00:33;;;;;;;0.60;0.60;;;8.10;99.90;;;;;;5021255;28;20486;-78
2021/01/22 02:03:00;;;;;;;0.50;0.50;;;8.10;99.90;;;;;;5020891;28;21001;-79
2021/01/22 02:05:29;;;;;;;0.60;0.60;;;8.20;99.90;;;;;;5026683;28;20486;-79
2021/01/22 02:07:56;;;;;;;1.30;0.63;;;8.10;29.70;;;;;;5030027;28;20479;-77
2021/01/22 02:10:24;;;;;;;0.70;0.70;;;8.20;1.00;;;;;;5020713;28;20463;-78
2021/01/22 02:12:53;;;;;;;0.50;0.50;;;8.20;1.00;;;;;;5017999;28;20470;-78
2021/01/22 02:15:22;;;;;;;0.50;0.50;;;8.10;1.00;;;;;;5025866;28;20514;-77
2021/01/22 02:17:51;;;;;;;1.67;0.60;;;8.10;99.90;;;;;;5026576;28;20534;-78
2021/01/22 02:20:30;;;;;;;0.87;0.60;;;8.20;92.00;;;;;;5032459;28;20542;-77
2021/01/22 02:22:57;;;;;;;1.07;0.70;;;8.10;1.00;;;;;;5023293;28;20551;-77
2021/01/22 02:25:30;;;;;;;0.60;0.60;;;8.20;1.00;;;;;;5029342;28;20493;-77
2021/01/22 02:27:58;;;;;;;0.80;0.77;;;8.20;1.00;;;;;;5025070;28;20478;-76
2021/01/22 02:30:26;;;;;;;0.70;0.70;;;8.10;99.90;;;;;;5026910;28;20509;-77
2021/01/22 02:32:54;;;;;;;1.47;0.90;;;8.10;99.90;;;;;;5028673;28;20468;-76
2021/01/22 02:35:24;;;;;;;0.60;0.60;;;8.10;4.10;;;;;;5029986;28;20566;-77
2021/01/22 02:37:53;;;;;;;0.60;0.50;;;8.20;1.00;;;;;;5023517;28;20533;-78
2021/01/22 02:40:20;;;;;;;3.90;0.67;;;8.20;99.90;;;;;;5022455;28;20474;-79
2021/01/22 02:42:50;;;;;;;1.60;0.70;;;8.20;99.90;;;;;;5025257;28;20487;-76
2021/01/22 02:45:18;;;;;;;0.70;0.70;;;8.20;1.00;;;;;;5027864;28;20495;-76
2021/01/22 02:47:48;;;;;;;1.50;0.83;;;8.20;1.00;;;;;;5027326;28;20482;-79
2021/01/22 02:50:17;;;;;;;4.47;0.63;;;8.10;1.00;;;;;;5023039;28;20498;-76
2021/01/22 02:52:44;;;;;;;1.60;0.70;;;8.20;1.00;;;;;;5027130;28;20463;-76
2021/01/22 02:55:13;;;;;;;0.60;0.60;;;8.10;61.70;;;;;;5012516;28;20938;-77
2021/01/22 02:57:49;;;;;;;2.43;0.70;;;8.10;1.00;;;;;;5028960;28;20965;-77
2021/01/22 03:00:23;;;;;;;2.13;0.70;;;8.10;29.40;;;;;;5017107;28;20483;-81
2021/01/22 03:02:56;;;;;;;0.87;0.70;;;8.00;2.50;;;;;;5029348;28;20470;-77
2021/01/22 03:05:26;;;;;;;1.30;0.60;;;8.00;1.00;;;;;;5023295;28;20534;-78
2021/01/22 03:07:55;;;;;;;1.37;0.70;;;8.00;29.30;;;;;;5020378;28;20453;-82
2021/01/22 03:10:25;;;;;;;1.10;0.60;;;8.00;1.00;;;;;;5024265;28;20477;-78
2021/01/22 03:12:56;;;;;;;1.70;0.80;;;8.00;99.90;;;;;;5027072;28;20511;-79
2021/01/22 03:15:24;;;;;;;0.70;0.70;;;7.90;1.00;;;;;;5019781;28;20464;-79
2021/01/22 03:18:10;;;;;;;0.60;0.60;;;7.90;99.90;;;;;;5026284;28;20484;-78
2021/01/22 03:20:39;;;;;;;0.70;0.60;;;7.90;1.00;;;;;;5027184;28;20495;-77
2021/01/22 03:23:06;;;;;;;1.03;0.77;;;7.80;1.00;;;;;;5022068;28;20481;-77
2021/01/22 03:25:33;;;;;;;3.20;0.67;;;7.80;99.90;;;;;;5022704;28;20491;-77
2021/01/22 03:28:00;;;;;;;0.80;0.60;;;7.80;99.90;;;;;;5017590;28;20457;-77
2021/01/22 03:30:28;;;;;;;0.80;0.70;;;7.80;99.90;;;;;;5031455;28;20476;-78
2021/01/22 03:32:55;;;;;;;0.77;0.77;;;7.70;99.90;;;;;;5021391;28;20480;-79
2021/01/22 03:35:23;;;;;;;0.60;0.60;;;7.70;1.00;;;;;;5027425;28;20524;-79
2021/01/22 03:37:50;;;;;;;1.37;0.93;;;7.80;1.00;;;;;;5024216;28;20479;-79
2021/01/22 03:40:17;;;;;;;1.30;0.60;;;7.80;99.90;;;;;;5019317;28;20475;-77
2021/01/22 03:42:45;;;;;;;1.53;0.70;;;7.80;39.00;;;;;;5024872;28;20462;-78
2021/01/22 03:45:13;;;;;;;1.13;0.60;;;7.80;99.90;;;;;;5031504;28;20553;-77
2021/01/22 03:47:42;;;;;;;2.37;0.77;;;7.70;99.90;;;;;;5030052;28;20557;-78
2021/01/22 03:50:11;;;;;;;1.10;0.70;;;7.70;99.90;;;;;;5016510;28;20475;-78
2021/01/22 03:52:39;;;;;;;1.73;0.80;;;7.80;1.00;;;;;;5022125;28;20489;-77
2021/01/22 03:55:07;;;;;;;1.17;0.70;;;7.80;1.00;;;;;;5031457;28;20525;-77
2021/01/22 03:57:35;;;;;;;0.70;0.70;;;7.70;99.90;;;;;;5024275;28;21176;-77
2021/01/22 04:00:03;;;;;;;1.93;0.90;;;7.70;38.10;;;;;;5026612;28;21030;-78
2021/01/22 04:02:31;;;;;;;1.00;0.70;;;7.60;99.90;;;;;;5024725;28;20493;-79
2021/01/22 04:04:59;;;;;;;1.90;0.80;;;7.60;99.90;;;;;;5030943;28;20455;-79
2021/01/22 04:07:26;;;;;;;1.57;0.60;;;7.50;99.90;;;;;;5028042;28;20884;-78
2021/01/22 04:09:53;;;;;;;2.40;0.70;;;7.50;99.90;;;;;;5023660;28;20588;-79
2021/01/22 04:12:21;;;;;;;0.97;0.60;;;7.50;1.00;;;;;;5016640;28;20469;-78
2021/01/22 04:14:48;;;;;;;3.43;0.80;;;7.40;47.10;;;;;;5027273;28;21388;-79
2021/01/22 04:17:15;;;;;;;2.73;1.10;;;7.40;1.00;;;;;;5022903;28;21323;-78
2021/01/22 04:19:43;;;;;;;1.43;0.90;;;7.40;1.00;;;;;;5027693;28;20468;-78
2021/01/22 04:22:11;;;;;;;2.50;1.10;;;7.40;29.50;;;;;;5019030;28;20475;-79
2021/01/22 04:24:39;;;;;;;2.13;0.70;;;7.40;99.90;;;;;;5026582;28;20896;-76
2021/01/22 04:27:06;;;;;;;1.63;1.47;;;7.40;99.90;;;;;;5019082;28;20478;-78
2021/01/22 04:29:33;;;;;;;2.50;1.10;;;7.40;1.00;;;;;;5016692;28;20467;-76
2021/01/22 04:32:00;;;;;;;0.80;0.80;;;7.50;1.00;;;;;;5014613;28;20484;-79
2021/01/22 04:34:28;;;;;;;0.77;0.77;;;7.60;86.00;;;;;;5026173;28;20531;-77
2021/01/22 04:36:55;;;;;;;0.60;0.60;;;7.60;99.90;;;;;;5023180;28;20496;-77
2021/01/22 04:39:23;;;;;;;1.80;1.20;;;7.60;99.90;;;;;;5016856;28;20482;-76
2021/01/22 04:41:50;;;;;;;1.53;0.70;;;7.60;12.30;;;;;;5014702;28;20542;-77
2021/01/22 04:44:18;;;;;;;1.00;0.80;;;7.70;1.00;;;;;;5022913;28;20465;-76
2021/01/22 04:46:45;;;;;;;0.50;0.50;;;7.80;1.00;;;;;;5019750;28;20501;-77
2021/01/22 04:49:13;;;;;;;2.27;0.60;;;7.70;1.00;;;;;;5020247;28;20490;-75
2021/01/22 04:51:41;;;;;;;1.37;0.77;;;7.80;1.00;;;;;;5016394;28;20468;-77
2021/01/22 04:54:11;;;;;;;0.77;0.77;;;7.70;1.00;;;;;;5019142;28;20504;-77
2021/01/22 04:56:43;;;;;;;0.90;0.80;;;7.70;99.90;;;;;;5023966;28;20496;-76
2021/01/22 04:59:15;;;;;;;1.53;0.70;;;7.80;99.90;;;;;;5012873;28;20468;-77
2021/01/22 05:01:45;;;;;;;2.30;0.60;;;7.80;99.90;;;;;;5023212;28;20472;-78
2021/01/22 05:04:13;;;;;;;0.73;0.70;;;7.80;99.90;;;;;;5027525;28;20513;-80
2021/01/22 05:06:41;;;;;;;0.50;0.50;;;7.70;99.90;;;;;;5032198;28;20495;-79
2021/01/22 05:09:08;;;;;;;1.20;0.60;;;7.80;1.00;;;;;;5027640;28;20500;-80
2021/01/22 05:11:35;;;;;;;0.50;0.50;;;7.80;99.90;;;;;;5025937;28;20471;-81
2021/01/22 05:14:03;;;;;;;0.60;0.50;;;7.70;99.90;;;;;;5012835;28;20475;-80
2021/01/22 05:16:33;;;;;;;0.50;0.50;;;7.70;99.90;;;;;;5015144;28;20499;-79
2021/01/22 05:19:19;;;;;;;0.60;0.60;;;7.70;1.00;;;;;;5023004;28;20488;-81
2021/01/22 05:21:47;;;;;;;1.10;0.60;;;7.70;1.00;;;;;;5029451;28;20493;-78
2021/01/22 05:24:20;;;;;;;1.50;0.60;;;7.70;1.00;;;;;;5026940;28;20211;-78
2021/01/22 05:26:48;;;;;;;0.50;0.50;;;7.70;1.00;;;;;;5020629;28;20499;-78
2021/01/22 05:29:16;;;;;;;2.00;0.50;;;7.70;97.90;;;;;;5012927;28;20587;-78
2021/01/22 05:31:43;;;;;;;2.13;0.60;;;7.70;99.90;;;;;;5023773;28;20481;-76
2021/01/22 05:34:11;;;;;;;0.50;0.50;;;7.70;99.90;;;;;;5021284;28;20891;-77
2021/01/22 05:36:38;;;;;;;0.70;0.70;;;7.70;99.90;;;;;;5016019;28;20487;-79
2021/01/22 05:39:06;;;;;;;0.50;0.50;;;7.80;99.90;;;;;;5018415;28;20493;-78
2021/01/22 05:41:33;;;;;;;0.50;0.50;;;7.80;1.00;;;;;;5021681;28;20223;-80
2021/01/22 05:44:00;;;;;;;0.50;0.50;;;7.70;99.90;;;;;;5026668;28;20577;-78
2021/01/22 05:46:29;;;;;;;1.53;0.60;;;7.70;1.00;;;;;;5021885;28;20355;-77
2021/01/22 05:49:08;;;;;;;0.63;0.50;;;7.70;1.00;;;;;;5022153;28;20469;-76
2021/01/22 05:51:36;;;;;;;1.70;0.50;;;7.70;1.00;;;;;;5030493;28;20996;-78
2021/01/22 05:54:05;;;;;;;0.50;0.50;;;7.70;29.30;;;;;;5025138;28;20502;-76
2021/01/22 05:56:32;;;;;;;0.47;0.47;;;7.70;1.00;;;;;;5020403;28;20495;-77
2021/01/22 05:59:13;;;;;;;0.80;0.50;;;7.70;75.70;;;;;;5026205;28;20467;-77
2021/01/22 06:01:41;;;;;;;0.43;0.43;;;7.70;99.90;;;;;;5019280;28;20470;-77
2021/01/22 06:04:09;;;;;;;0.80;0.60;;;7.70;45.80;;;;;;5027390;28;20851;-77
2021/01/22 06:06:36;;;;;;;0.40;0.40;;;7.60;99.90;;;;;;5019187;28;20500;-78
2021/01/22 06:09:05;;;;;;;1.23;0.40;;;7.60;99.90;;;;;;5027192;28;20461;-75
2021/01/22 06:11:33;;;;;;;0.50;0.50;;;7.60;99.90;;;;;;5017329;28;20474;-82
2021/01/22 06:14:04;;;;;;;0.50;0.50;;;7.60;99.90;;;;;;5023160;28;20554;-79
2021/01/22 06:16:32;;;;;;;0.70;0.50;;;7.60;99.90;;;;;;5015056;28;20491;-77
2021/01/22 06:19:01;;;;;;;0.60;0.50;;;7.60;99.90;;;;;;5026120;28;20476;-78
2021/01/22 06:21:31;;;;;;;0.47;0.47;;;7.60;99.90;;;;;;5015755;28;20493;-79
2021/01/22 06:24:00;;;;;;;0.40;0.40;;;7.70;99.90;;;;;;5018432;28;20482;-77
2021/01/22 06:26:29;;;;;;;0.50;0.50;;;7.60;99.90;;;;;;5019519;28;20498;-76
2021/01/22 06:29:01;;;;;;;0.60;0.50;;;7.60;99.90;;;;;;5011884;28;20479;-75
2021/01/22 06:31:29;;;;;;;0.50;0.50;;;7.60;99.90;;;;;;5008465;28;20470;-77
2021/01/22 06:33:57;;;;;;;0.50;0.50;;;7.60;99.90;;;;;;5016018;28;20557;-75
2021/01/22 06:36:26;;;;;;;1.00;0.60;;;7.50;1.00;;;;;;5018264;28;20552;-75
2021/01/22 06:38:54;;;;;;;1.27;0.97;;;7.50;1.00;;;;;;5016362;28;20855;-77
2021/01/22 06:41:26;;;;;;;0.50;0.50;;;7.60;99.90;;;;;;5012537;28;20519;-76
2021/01/22 06:43:57;;;;;;;0.70;0.60;;;7.60;99.90;;;;;;5017450;28;20481;-76
2021/01/22 06:46:27;;;;;;;0.90;0.50;;;7.60;99.90;;;;;;5014721;28;20581;-76
2021/01/22 06:48:56;;;;;;;0.50;0.50;;;7.60;29.20;;;;;;5017298;28;20487;-77
2021/01/22 06:51:25;;;;;;;0.60;0.60;;;7.50;99.90;;;;;;5014955;28;20492;-76
2021/01/22 06:54:09;;;;;;;1.13;0.50;;;7.50;99.90;;;;;;5015897;28;20484;-76
2021/01/22 06:56:38;;;;;;;0.93;0.50;;;7.60;99.90;;;;;;5018107;28;20493;-79
2021/01/22 06:59:37;;;;;;;0.70;0.60;;;7.60;99.90;;;;;;5015980;28;20471;-77
2021/01/22 07:02:38;;;;;;;0.60;0.50;;;7.60;99.90;;;;;;5013853;28;20949;-76
2021/01/22 07:05:45;;;;;;;0.60;0.60;;;7.60;99.90;;;;;;5016970;28;20571;-73
2021/01/22 07:08:13;;;;;;;1.10;0.60;;;7.60;99.90;;;;;;5018374;28;20521;-76
2021/01/22 07:11:03;;;;;;;0.50;0.50;;;7.60;99.90;;;;;;5013911;28;20939;-76
2021/01/22 07:13:39;;;;;;;0.60;0.60;;;7.60;99.90;;;;;;5018051;28;20483;-75
2021/01/22 07:16:08;;;;;;;2.47;0.50;;;7.50;1.00;;;;;;5013601;28;20577;-78
2021/01/22 07:18:43;;;;;;;1.23;0.50;;;7.60;1.00;;;;;;5024019;28;20473;-76
2021/01/22 07:21:28;;;;;;;0.50;0.50;;;7.70;99.90;;;;;;5013645;28;20490;-77
2021/01/22 07:23:58;;;;;;;0.90;0.50;;;7.80;29.40;;;;;;5017598;28;20491;-78
2021/01/22 07:26:35;;;;;;;1.00;0.50;;;7.80;1.00;;;;;;5012850;28;20494;-77
2021/01/22 07:29:23;;;;;;;0.80;0.50;;;7.80;1.00;;;;;;5012511;28;20488;-77
2021/01/22 07:31:58;;;;;;;0.70;0.60;;;7.70;1.00;;;;;;5012324;28;20994;-79
2021/01/22 07:34:46;;;;;;;0.40;0.40;;;7.80;1.00;;;;;;5015243;28;20484;-78
2021/01/22 07:37:16;;;;;;;0.93;0.60;;;7.70;99.90;;;;;;5015011;28;20491;-75
2021/01/22 07:39:44;;;;;;;0.50;0.50;;;7.80;1.00;;;;;;5013915;28;21026;-79
2021/01/22 07:42:13;;;;;;;0.43;0.43;;;7.80;99.90;;;;;;5012382;28;20590;-79
2021/01/22 07:44:42;;;;;;;1.23;0.50;;;7.80;59.00;;;;;;5013981;28;21089;-79
2021/01/22 07:47:11;;;;;;;2.10;0.60;;;7.80;93.70;;;;;;5012269;28;21010;-75
2021/01/22 07:49:56;;;;;;;1.50;0.80;;;7.80;88.70;;;;;;5013972;28;20539;-76
2021/01/22 07:52:23;;;;;;;0.70;0.50;;;7.80;1.00;;;;;;5014062;28;20475;-77
2021/01/22 07:54:52;;;;;;;0.70;0.60;;;7.90;1.00;;;;;;5016986;28;20562;-75
2021/01/22 07:57:21;;;;;;;0.73;0.70;;;7.90;1.00;;;;;;5021095;28;20468;-77
2021/01/22 07:59:49;;;;;;;1.07;0.60;;;8.00;99.90;;;;;;5013939;28;20522;-74
2021/01/22 08:02:21;;;;;;;0.53;0.50;;;8.00;99.90;;;;;;5012674;28;20485;-75
2021/01/22 08:04:56;;;;;;;0.90;0.50;;;8.00;99.90;;;;;;5013513;28;20989;-75
2021/01/22 08:07:34;;;;;;;2.93;0.70;;;8.00;99.90;;;;;;5017693;28;20565;-77
2021/01/22 08:10:06;;;;;;;0.63;0.60;;;8.10;99.90;;;;;;5014304;28;20911;-74
2021/01/22 08:12:34;;;;;;;1.10;0.60;;;8.20;1.00;;;;;;5013357;28;20476;-79
2021/01/22 08:15:14;;;;;;;1.07;0.60;;;8.40;99.90;;;;;;5013669;28;20577;-75
2021/01/22 08:17:44;;;;;;;1.23;0.60;;;8.60;99.90;;;;;;5015038;28;20569;-77
2021/01/22 08:20:13;;;;;;;2.57;0.60;;;8.70;1.00;;;;;;5023292;28;20560;-75
2021/01/22 08:22:41;;;;;;;1.73;0.60;;;8.80;99.90;;;;;;5015879;28;20474;-76
2021/01/22 08:25:10;;;;;;;1.47;0.90;;;8.70;1.00;;;;;;5017250;28;20560;-77
2021/01/22 08:27:40;;;;;;;0.87;0.57;;;8.80;1.00;;;;;;5014538;28;20862;-75
2021/01/22 08:30:08;;;;;;;0.60;0.57;;;8.70;1.00;;;;;;5012500;28;20943;-75
2021/01/22 08:32:36;;;;;;;0.83;0.50;;;8.80;1.00;;;;;;5012768;28;20474;-76
2021/01/22 08:35:05;;;;;;;0.77;0.50;;;8.80;1.00;;;;;;5025443;28;20490;-80
2021/01/22 08:37:33;;;;;;;0.50;0.50;;;8.80;1.00;;;;;;5018944;28;20475;-75
2021/01/22 08:40:00;;;;;;;0.97;0.50;;;8.90;99.90;;;;;;5018432;28;20491;-77
2021/01/22 08:42:30;;;;;;;0.90;0.70;;;9.00;99.90;;;;;;5025426;28;20466;-76
2021/01/22 08:44:59;;;;;;;1.17;0.57;;;9.20;99.90;;;;;;5010935;28;20459;-76
2021/01/22 08:47:28;;;;;;;0.90;0.70;;;9.10;1.00;;;;;;5014168;28;20987;-76
2021/01/22 08:49:58;;;;;;;0.60;0.60;;;9.10;4.80;;;;;;5014575;28;20483;-76
2021/01/22 08:52:27;;;;;;;1.43;0.70;;;9.20;1.00;;;;;;5012846;28;20514;-76
2021/01/22 08:54:57;;;;;;;1.33;0.63;;;9.20;1.00;;;;;;5018797;28;20478;-74
2021/01/22 08:57:25;;;;;;;0.83;0.60;;;9.20;1.00;;;;;;5018895;28;20959;-76
2021/01/22 08:59:55;;;;;;;1.10;0.50;;;9.30;1.00;;;;;;5018955;28;20482;-77
2021/01/22 09:02:41;;;;;;;1.00;0.60;;;9.40;1.00;;;;;;5018393;28;20524;-80
2021/01/22 09:05:11;;;;;;;2.63;0.60;;;9.50;1.00;;;;;;5019492;28;20498;-77
2021/01/22 09:07:40;;;;;;;1.77;0.60;;;9.40;1.00;;;;;;5017243;28;20480;-76
2021/01/22 09:10:22;;;;;;;0.70;0.60;;;9.40;1.00;;;;;;5021552;28;20989;-76
2021/01/22 09:12:50;;;;;;;0.60;0.50;;;9.50;99.90;;;;;;5021935;28;20464;-77
2021/01/22 09:15:19;;;;;;;2.00;0.60;;;9.50;99.90;;;;;;5007440;28;20826;-75
2021/01/22 09:17:49;;;;;;;1.70;0.50;;;9.60;99.90;;;;;;5016551;28;20469;-75
2021/01/22 09:20:18;;;;;;;1.23;0.50;;;9.60;99.90;;;;;;5018070;28;20540;-75
2021/01/22 09:22:46;;;;;;;1.10;0.60;;;9.70;99.90;;;;;;5014457;28;20982;-75
2021/01/22 09:25:15;;;;;;;0.70;0.67;;;9.80;99.90;;;;;;5021721;28;20877;-76
2021/01/22 09:27:43;;;;;;;0.83;0.83;;;9.80;99.90;;;;;;5020312;28;20554;-74
2021/01/22 09:30:12;;;;;;;0.70;0.70;;;9.80;99.90;;;;;;5013385;28;20473;-75
2021/01/22 09:32:44;;;;;;;1.90;0.70;;;9.90;99.90;;;;;;5012228;28;20479;-75
2021/01/22 09:35:12;;;;;;;0.50;0.50;;;10.00;99.90;;;;;;5013399;28;20488;-76
2021/01/22 09:37:39;;;;;;;0.60;0.60;;;10.10;99.90;;;;;;5015432;28;20824;-76
2021/01/22 09:40:08;;;;;;;0.80;0.50;;;10.20;99.90;;;;;;5024897;28;20921;-76
2021/01/22 09:42:36;;;;;;;2.50;0.60;;;10.40;1.00;;;;;;5025598;28;20551;-77
2021/01/22 09:45:04;;;;;;;0.60;0.60;;;10.40;1.00;;;;;;5017115;28;20463;-75
2021/01/22 09:47:32;;;;;;;1.17;0.80;;;10.40;1.00;;;;;;5018252;28;20500;-76
2021/01/22 09:50:00;;;;;;;1.33;1.00;;;10.50;1.00;;;;;;5025445;28;20520;-75
2021/01/22 09:52:27;;;;;;;0.67;0.60;;;10.70;1.00;;;;;;5019299;28;20474;-76
2021/01/22 09:54:55;;;;;;;0.60;0.60;;;10.80;1.00;;;;;;5010800;28;21028;-75
2021/01/22 09:57:22;;;;;;;2.70;0.67;;;10.90;1.00;;;;;;5011348;28;20469;-76
2021/01/22 09:59:49;;;;;;;0.83;0.60;;;10.80;1.00;;;;;;5013816;28;20462;-76
2021/01/22 10:02:16;;;;;;;1.63;0.60;;;10.90;1.00;;;;;;5010883;28;20875;-75
2021/01/22 10:04:44;;;;;;;0.80;0.50;;;10.90;1.00;;;;;;5013112;28;21161;-75
2021/01/22 10:07:12;;;;;;;0.80;0.60;;;11.10;1.00;;;;;;5019056;28;20872;-75
2021/01/22 10:09:39;;;;;;;1.40;0.70;;;11.10;1.00;;;;;;5021574;28;20553;-75
2021/01/22 10:12:08;;;;;;;0.60;0.60;;;11.10;1.00;;;;;;5017929;28;20491;-74
2021/01/22 10:14:35;;;;;;;1.53;0.50;;;11.30;1.00;;;;;;5025087;28;20468;-74
2021/01/22 10:17:02;;;;;;;1.23;0.60;;;11.20;1.00;;;;;;5019033;28;20495;-74
2021/01/22 10:19:34;;;;;;;0.60;0.60;;;11.20;1.00;;;;;;5013667;28;20817;-75
2021/01/22 10:22:02;;;;;;;0.70;0.60;;;11.30;1.00;;;;;;5012748;28;20507;-74
2021/01/22 10:24:30;;;;;;;2.97;0.60;;;11.40;1.00;;;;;;5022550;28;20580;-75
2021/01/22 10:26:57;;;;;;;0.60;0.60;;;11.50;1.00;;;;;;5013121;28;20483;-74
2021/01/22 10:29:25;;;;;;;0.80;0.67;;;11.50;1.00;;;;;;5020477;28;20475;-75
2021/01/22 10:31:52;;;;;;;1.20;0.70;;;11.80;1.00;;;;;;5008718;28;21032;-75
2021/01/22 10:34:20;;;;;;;0.60;0.60;;;12.20;99.90;;;;;;5012892;28;20717;-74
2021/01/22 10:36:47;;;;;;;1.40;0.60;;;12.60;99.90;;;;;;5013523;28;20915;-75
2021/01/22 10:39:15;;;;;;;0.80;0.70;;;12.90;99.90;;;;;;5013973;28;20502;-77
2021/01/22 10:41:44;;;;;;;1.70;0.70;;;13.20;99.90;;;;;;5016602;28;20833;-78
2021/01/22 10:44:11;;;;;;;0.60;0.50;;;13.40;99.90;;;;;;5023249;28;20203;-76
2021/01/22 10:46:38;;;;;;;0.67;0.60;;;14.00;99.90;;;;;;5019463;28;20575;-76
2021/01/22 10:49:06;;;;;;;0.70;0.60;;;14.90;99.90;;;;;;5014659;28;20472;-75
2021/01/22 10:51:34;;;;;;;0.53;0.53;;;15.90;99.90;;;;;;5016066;28;20882;-75
2021/01/22 10:54:01;;;;;;;0.68;0.60;;;15.70;99.90;;;;;;5015955;28;20453;-76
2021/01/22 10:56:28;;;;;;;1.00;0.90;;;15.50;99.90;;;;;;5018750;28;20235;-76
2021/01/22 10:58:56;;;;;;;2.20;0.57;;;16.40;99.90;;;;;;5020809;28;20456;-74
2021/01/22 11:01:24;;;;;;;0.70;0.60;;;18.30;99.90;;;;;;5023337;28;20463;-76
2021/01/22 11:03:51;;;;;;;0.70;0.57;;;19.30;99.90;;;;;;5013622;28;20478;-75
2021/01/22 11:06:19;;;;;;;1.00;0.60;;;19.60;99.90;;;;;;5024466;28;20476;-76
2021/01/22 11:08:46;;;;;;;0.60;0.60;;;19.60;99.90;;;;;;5020535;28;20998;-77
2021/01/22 11:11:14;;;;;;;2.30;0.70;;;18.80;99.90;;;;;;5016593;28;20477;-75
2021/01/22 11:13:41;;;;;;;0.93;0.57;;;17.40;99.90;;;;;;5017365;28;20466;-75
2021/01/22 11:16:09;;;;;;;0.60;0.60;;;16.40;99.90;;;;;;5016335;28;20585;-74
2021/01/22 11:18:36;;;;;;;0.53;0.53;;;16.60;99.90;;;;;;5017773;28;20456;-74
2021/01/22 11:21:04;;;;;;;1.13;0.73;;;16.30;99.90;;;;;;5023064;28;20447;-74
2021/01/22 11:23:31;;;;;;;0.70;0.60;;;16.00;99.90;;;;;;5018815;28;21040;-76
2021/01/22 11:25:58;;;;;;;2.60;0.60;;;15.30;99.90;;;;;;5020833;28;20475;-74
2021/01/22 11:28:25;;;;;;;0.87;0.60;;;15.20;99.90;;;;;;5016243;28;20468;-76
2021/01/22 11:30:53;;;;;;;0.60;0.57;;;14.60;99.90;;;;;;5014740;28;20551;-75
2021/01/22 11:33:21;;;;;;;2.60;0.60;;;14.00;99.90;;;;;;5014555;28;20465;-74
2021/01/22 11:35:48;;;;;;;0.60;0.60;;;13.80;99.90;;;;;;5017111;28;20809;-74
2021/01/22 11:38:15;;;;;;;1.80;0.60;;;13.60;99.90;;;;;;5018918;28;20258;-76
2021/01/22 11:40:42;;;;;;;0.90;0.80;;;13.60;99.90;;;;;;5016697;28;20458;-76
2021/01/22 11:43:10;;;;;;;0.77;0.70;;;13.30;99.90;;;;;;5022669;28;20978;-76
2021/01/22 11:45:38;;;;;;;0.77;0.67;;;13.20;99.90;;;;;;5024198;28;20485;-75
2021/01/22 11:48:06;;;;;;;5.70;0.77;;;13.30;99.90;;;;;;5020490;28;20514;-75
2021/01/22 11:50:34;;;;;;;0.70;0.70;;;13.10;99.90;;;;;;5009008;28;20479;-74
2021/01/22 11:53:03;;;;;;;1.73;0.70;;;12.90;99.90;;;;;;5015076;28;20558;-74
2021/01/22 11:55:38;;;;;;;1.50;0.70;;;12.80;99.90;;;;;;5022966;28;20500;-76
2021/01/22 11:58:05;;;;;;;1.07;0.77;;;13.00;99.90;;;;;;5018120;28;20455;-73
2021/01/22 12:00:32;;;;;;;0.90;0.65;;;12.90;99.90;;;;;;5016105;28;20464;-74
2021/01/22 12:03:00;;;;;;;0.60;0.60;;;12.60;99.90;;;;;;5016073;28;20207;-75
2021/01/22 12:05:28;;;;;;;1.90;0.90;;;12.70;99.90;;;;;;5022577;28;20818;-74
2021/01/22 12:07:56;;;;;;;0.60;0.60;;;12.70;99.90;;;;;;5017351;28;20840;-75
2021/01/22 12:10:24;;;;;;;0.60;0.60;;;12.70;99.90;;;;;;5023401;28;20529;-74
2021/01/22 12:12:51;;;;;;;1.17;0.60;;;12.50;99.90;;;;;;5019803;28;21081;-74
2021/01/22 12:15:18;;;;;;;0.90;0.63;;;12.40;99.90;;;;;;5019889;28;21075;-74
2021/01/22 12:17:47;;;;;;;1.07;0.50;;;12.50;99.90;;;;;;5018832;28;20970;-74
2021/01/22 12:20:14;;;;;;;0.60;0.60;;;12.60;99.90;;;;;;5016067;28;20540;-73
2021/01/22 12:22:42;;;;;;;0.57;0.57;;;12.60;99.90;;;;;;5018123;28;20563;-74
2021/01/22 12:25:11;;;;;;;1.90;0.60;;;12.60;99.90;;;;;;5020433;28;20461;-73
2021/01/22 12:27:39;;;;;;;0.63;0.63;;;12.70;99.90;;;;;;5024302;28;20456;-75
2021/01/22 12:30:07;;;;;;;0.53;0.53;;;12.90;99.90;;;;;;5021127;28;20515;-74
2021/01/22 12:32:34;;;;;;;0.60;0.60;;;13.30;99.90;;;;;;5019140;28;20511;-74
2021/01/22 12:35:02;;;;;;;1.20;0.70;;;13.60;99.90;;;;;;5014947;28;20495;-75
2021/01/22 12:37:30;;;;;;;1.00;0.63;;;13.90;99.90;;;;;;5017005;28;21317;-74
2021/01/22 12:39:57;;;;;;;0.50;0.50;;;13.80;99.90;;;;;;5015325;28;20457;-75
2021/01/22 12:42:25;;;;;;;0.60;0.53;;;13.70;99.90;;;;;;5017871;28;20478;-74
2021/01/22 12:44:52;;;;;;;0.70;0.70;;;13.30;99.90;;;;;;5023148;28;20462;-74
2021/01/22 12:47:20;;;;;;;0.70;0.70;;;13.20;99.90;;;;;;5007801;28;20522;-75
2021/01/22 12:49:47;;;;;;;0.97;0.57;;;13.10;99.90;;;;;;5021131;28;20455;-74
2021/01/22 12:52:14;;;;;;;6.47;1.03;;;13.00;99.90;;;;;;5018779;28;20519;-74
2021/01/22 12:54:41;;;;;;;0.80;0.50;;;12.90;99.90;;;;;;5024097;28;20507;-73
2021/01/22 12:57:08;;;;;;;0.50;0.50;;;12.80;99.90;;;;;;5017388;28;20494;-74
2021/01/22 12:59:36;;;;;;;0.50;0.50;;;12.60;99.90;;;;;;5021073;28;20467;-74
2021/01/22 13:02:03;;;;;;;2.00;0.87;;;12.40;99.90;;;;;;5027200;28;21037;-74
2021/01/22 13:04:30;;;;;;;1.63;0.70;;;12.40;99.90;;;;;;5022774;28;20500;-74
2021/01/22 13:06:58;;;;;;;0.93;0.50;;;12.50;99.90;;;;;;5023773;28;20467;-73
2021/01/22 13:09:25;;;;;;;0.50;0.50;;;12.60;99.90;;;;;;5011789;28;20477;-75